Time;durP1;ratioP1;P1;durP2;ratioP2;P2;SDS_P1;SDS_P2;PMS_P1;PMS_P2;Temp;Humidity;BMP_temperature;BMP_pressure;BME280_temperature;BME280_humidity;BME280_pressure;Samples;Min_cycle;Max_cycle;Signal;HPM_P1;HPM_P2
2022/04/10 07:03:44;;;;;;;1.30;1.00;;;22.50;52.60;;;;;;6238750;22;20421;-81
2022/04/10 07:06:11;;;;;;;5.13;1.87;;;22.50;53.70;;;;;;6257330;23;20396;-81
2022/04/10 07:08:38;;;;;;;4.30;1.40;;;22.50;53.30;;;;;;6248119;23;20401;-82
2022/04/10 07:11:04;;;;;;;2.23;1.30;;;22.50;53.40;;;;;;6248066;23;20771;-81
2022/04/10 07:13:31;;;;;;;1.47;1.27;;;22.60;53.50;;;;;;6247996;23;20409;-82
2022/04/10 07:15:58;;;;;;;1.70;1.20;;;22.70;53.70;;;;;;6247937;23;20409;-81
2022/04/10 07:18:25;;;;;;;3.37;1.17;;;22.60;53.80;;;;;;6247967;23;20412;-81
2022/04/10 07:20:53;;;;;;;3.43;1.40;;;22.70;53.80;;;;;;6247900;23;20408;-86
2022/04/10 07:26:06;;;;;;;3.23;1.27;;;22.80;53.70;;;;;;6248089;23;20844;-81
2022/04/10 07:28:33;;;;;;;1.20;1.07;;;22.80;53.60;;;;;;6247960;23;20408;-84
2022/04/10 07:31:00;;;;;;;1.53;1.13;;;22.80;53.40;;;;;;6248263;23;20402;-82
2022/04/10 07:33:27;;;;;;;2.03;1.00;;;22.90;53.40;;;;;;6247659;23;20935;-81
2022/04/10 07:35:55;;;;;;;1.90;1.20;;;22.90;53.60;;;;;;6247816;23;20402;-81
2022/04/10 07:38:22;;;;;;;1.83;1.10;;;22.90;53.50;;;;;;6247389;23;20888;-81
2022/04/10 07:40:49;;;;;;;1.30;1.13;;;22.90;53.30;;;;;;6247729;23;20481;-81
2022/04/10 07:43:16;;;;;;;3.23;1.27;;;23.10;53.40;;;;;;6247646;23;20452;-83
2022/04/10 07:48:27;;;;;;;3.87;1.50;;;22.90;52.80;;;;;;6247592;23;20880;-83
2022/04/10 07:50:57;;;;;;;1.97;1.30;;;22.90;52.50;;;;;;6247863;23;20405;-87
2022/04/10 07:53:24;;;;;;;1.37;1.27;;;23.00;52.80;;;;;;6247678;23;20459;-83
2022/04/10 07:55:51;;;;;;;1.40;1.30;;;23.00;52.90;;;;;;6247847;23;20394;-83
2022/04/10 07:58:17;;;;;;;3.87;2.00;;;23.30;53.40;;;;;;6247763;23;20480;-83
2022/04/10 08:00:44;;;;;;;3.37;1.47;;;23.10;51.30;;;;;;6247906;23;20409;-95
2022/04/10 08:03:11;;;;;;;5.37;2.00;;;22.90;50.40;;;;;;6247418;23;20441;-82
2022/04/10 08:05:38;;;;;;;5.00;1.80;;;22.90;50.40;;;;;;6247519;23;20433;-83
2022/04/10 08:08:07;;;;;;;4.50;1.73;;;22.70;50.50;;;;;;6248318;23;20413;-83
2022/04/10 08:10:34;;;;;;;7.27;1.50;;;22.70;50.90;;;;;;6247699;23;20401;-95
2022/04/10 08:13:00;;;;;;;2.03;1.40;;;22.70;51.10;;;;;;6247604;23;20880;-82
2022/04/10 08:15:27;;;;;;;1.40;1.30;;;22.70;51.30;;;;;;6247429;23;20745;-83
2022/04/10 08:17:56;;;;;;;3.67;1.80;;;22.70;51.50;;;;;;6247540;23;20415;-89
2022/04/10 08:20:23;;;;;;;8.30;2.53;;;22.80;51.80;;;;;;6247023;23;20429;-91
2022/04/10 08:22:50;;;;;;;3.20;2.23;;;22.80;50.50;;;;;;6247628;23;20449;-87
2022/04/10 08:25:23;;;;;;;2.80;1.40;;;22.80;50.60;;;;;;6248176;23;20489;-88
2022/04/10 08:27:50;;;;;;;4.93;2.40;;;22.90;51.50;;;;;;6246925;23;20386;-81
2022/04/10 08:30:17;;;;;;;3.20;1.70;;;23.00;52.00;;;;;;6249012;23;20417;-86
2022/04/10 08:32:45;;;;;;;11.13;1.70;;;23.10;52.20;;;;;;6246774;23;20394;-86
2022/04/10 08:35:13;;;;;;;2.43;1.60;;;22.90;52.10;;;;;;6247517;23;20480;-87
2022/04/10 08:37:40;;;;;;;6.57;1.30;;;23.00;52.20;;;;;;6247961;23;20910;-88
2022/04/10 08:40:08;;;;;;;4.77;1.63;;;23.00;52.00;;;;;;6247348;23;20398;-88
2022/04/10 08:42:36;;;;;;;2.90;1.77;;;23.00;52.20;;;;;;6247587;23;20460;-89
2022/04/10 08:45:04;;;;;;;9.13;1.93;;;23.10;52.40;;;;;;6247037;23;20406;-90
2022/04/10 08:47:31;;;;;;;1.93;1.30;;;23.10;52.50;;;;;;6247290;23;20401;-81
2022/04/10 08:50:00;;;;;;;2.10;1.70;;;23.20;52.60;;;;;;6247289;23;20401;-83
2022/04/10 08:52:27;;;;;;;2.50;1.30;;;23.20;52.60;;;;;;6247220;23;20412;-87
2022/04/10 08:54:57;;;;;;;1.90;1.30;;;23.40;52.80;;;;;;6246818;23;20398;-90
2022/04/10 08:57:24;;;;;;;1.77;1.23;;;23.20;52.70;;;;;;6247285;23;20394;-86
2022/04/10 08:59:57;;;;;;;3.00;1.70;;;23.20;52.70;;;;;;6247134;23;20394;-84
2022/04/10 09:02:25;;;;;;;1.40;1.30;;;23.30;52.70;;;;;;6248046;23;20808;-88
2022/04/10 09:04:52;;;;;;;3.50;1.50;;;23.20;52.20;;;;;;6249224;23;20437;-94
2022/04/10 09:07:20;;;;;;;3.13;1.37;;;23.30;52.20;;;;;;6247486;23;20700;-84
2022/04/10 09:09:54;;;;;;;1.80;1.53;;;23.10;52.20;;;;;;6247438;23;20409;-96
2022/04/10 09:12:22;;;;;;;3.67;1.60;;;23.10;52.40;;;;;;6220120;23;20485;-84
2022/04/10 09:14:50;;;;;;;7.27;1.73;;;23.00;52.30;;;;;;6241128;22;20501;-82
2022/04/10 09:17:19;;;;;;;1.63;1.23;;;23.00;52.50;;;;;;6261132;23;20417;-83
2022/04/10 09:19:49;;;;;;;2.23;1.30;;;22.90;52.50;;;;;;6260091;23;20895;-84
2022/04/10 09:22:23;;;;;;;2.33;1.30;;;22.90;52.60;;;;;;6262810;23;20532;-84
2022/04/10 09:25:09;;;;;;;4.07;1.53;;;22.90;52.60;;;;;;6248466;23;20397;-83
2022/04/10 09:27:38;;;;;;;1.43;1.30;;;22.90;52.60;;;;;;6247550;23;20390;-86
2022/04/10 09:30:06;;;;;;;5.23;1.50;;;22.80;52.60;;;;;;6224233;23;20503;-85
2022/04/10 09:32:43;;;;;;;1.83;1.30;;;22.80;52.80;;;;;;6259289;22;20390;-96
2022/04/10 09:35:11;;;;;;;1.13;1.03;;;22.80;52.80;;;;;;6249318;23;20401;-95
2022/04/10 09:37:47;;;;;;;2.13;1.30;;;22.80;52.80;;;;;;6254006;23;20405;-84
2022/04/10 09:40:28;;;;;;;2.10;1.50;;;22.80;52.90;;;;;;6222601;23;20416;-88
2022/04/10 09:43:03;;;;;;;1.93;1.17;;;22.80;52.80;;;;;;6263384;23;20516;-85
2022/04/10 09:45:33;;;;;;;1.20;1.10;;;22.70;52.80;;;;;;6255808;23;20382;-92
2022/04/10 09:48:22;;;;;;;5.73;1.40;;;22.70;52.70;;;;;;6252207;23;20393;-91
2022/04/10 09:50:52;;;;;;;2.37;1.40;;;22.70;52.60;;;;;;6250212;23;20386;-85
2022/04/10 09:53:18;;;;;;;1.40;1.30;;;22.70;52.60;;;;;;6253637;23;20405;-85
2022/04/10 09:55:52;;;;;;;1.77;1.30;;;22.80;52.60;;;;;;6251283;23;20397;-85
2022/04/10 09:58:19;;;;;;;1.63;1.07;;;22.80;52.60;;;;;;6254659;23;20373;-84
2022/04/10 10:00:47;;;;;;;1.50;1.20;;;22.80;52.60;;;;;;6252051;22;20410;-84
2022/04/10 10:03:16;;;;;;;2.07;1.50;;;22.90;52.70;;;;;;6248281;23;20437;-85
2022/04/10 10:05:45;;;;;;;3.47;1.20;;;22.90;52.80;;;;;;6246290;23;20406;-88
2022/04/10 10:08:15;;;;;;;3.83;1.60;;;23.00;53.20;;;;;;6246387;23;20404;-81
2022/04/10 10:10:45;;;;;;;2.40;1.50;;;23.10;53.40;;;;;;6246288;23;20713;-83
2022/04/10 10:13:13;;;;;;;3.17;1.27;;;23.20;54.10;;;;;;6248143;23;20390;-82
2022/04/10 10:15:42;;;;;;;1.37;1.23;;;23.20;53.40;;;;;;6248240;23;20429;-82
2022/04/10 10:18:10;;;;;;;1.27;1.03;;;23.20;53.40;;;;;;6249014;23;20409;-80
2022/04/10 10:20:40;;;;;;;1.80;1.20;;;23.30;53.50;;;;;;6248841;23;20446;-84
2022/04/10 10:23:10;;;;;;;3.10;1.50;;;23.30;53.50;;;;;;6248467;23;20445;-80
2022/04/10 10:25:41;;;;;;;1.93;1.40;;;23.40;53.60;;;;;;6248115;23;20402;-80
2022/04/10 10:28:56;;;;;;;1.67;1.27;;;23.40;53.60;;;;;;6247764;23;20405;-79
2022/04/10 10:31:50;;;;;;;1.80;1.13;;;23.40;53.40;;;;;;6182400;23;20421;-79
2022/04/10 10:34:18;;;;;;;2.23;1.77;;;23.40;53.50;;;;;;6246372;23;20922;-92
2022/04/10 10:36:46;;;;;;;1.90;1.30;;;23.40;53.20;;;;;;6247885;23;20405;-80
2022/04/10 10:39:13;;;;;;;1.70;1.30;;;23.40;52.00;;;;;;6248231;23;20488;-81
2022/04/10 10:41:40;;;;;;;1.97;1.30;;;23.30;51.50;;;;;;6247538;23;20397;-81
2022/04/10 10:44:35;;;;;;;1.20;1.00;;;23.30;51.60;;;;;;6246624;23;20491;-81
2022/04/10 10:47:03;;;;;;;1.30;1.10;;;23.30;51.60;;;;;;6246433;23;20390;-81
2022/04/10 10:49:31;;;;;;;2.20;1.20;;;23.30;52.30;;;;;;6247864;23;20712;-86
2022/04/10 10:52:08;;;;;;;2.00;1.60;;;23.40;52.60;;;;;;6248098;23;20402;-81
2022/04/10 10:54:36;;;;;;;2.20;1.37;;;23.40;52.90;;;;;;6248222;23;20696;-81
2022/04/10 10:57:27;;;;;;;2.80;1.10;;;23.40;53.10;;;;;;6247580;23;20401;-83
2022/04/10 11:00:06;;;;;;;2.70;1.30;;;23.50;53.20;;;;;;6247611;22;20475;-81
2022/04/10 11:02:35;;;;;;;1.73;1.40;;;23.60;53.30;;;;;;6247636;23;20389;-84
2022/04/10 11:05:06;;;;;;;2.50;1.30;;;23.50;53.20;;;;;;6248381;23;20727;-79
2022/04/10 11:07:39;;;;;;;1.60;1.30;;;23.50;53.20;;;;;;6247894;23;20401;-84
2022/04/10 11:10:09;;;;;;;1.10;1.00;;;23.50;53.30;;;;;;6247969;23;20492;-85
2022/04/10 11:12:46;;;;;;;2.10;1.13;;;23.50;53.30;;;;;;6247763;23;20440;-81
2022/04/10 11:15:18;;;;;;;1.47;1.37;;;23.50;53.20;;;;;;6247410;23;20934;-80
2022/04/10 11:17:45;;;;;;;1.60;1.50;;;23.50;53.30;;;;;;6247667;23;20412;-80
2022/04/10 11:20:13;;;;;;;2.13;1.50;;;23.60;53.40;;;;;;6247245;23;20876;-80
2022/04/10 11:22:50;;;;;;;2.10;1.47;;;23.60;53.50;;;;;;6247121;23;20489;-80
2022/04/10 11:25:19;;;;;;;1.30;1.10;;;23.70;53.50;;;;;;6247407;23;20405;-81
2022/04/10 11:27:50;;;;;;;3.17;1.27;;;23.70;53.40;;;;;;6247279;23;20398;-80
2022/04/10 11:30:22;;;;;;;1.30;1.10;;;23.70;53.50;;;;;;6247716;22;20508;-80
2022/04/10 11:32:51;;;;;;;1.50;1.07;;;23.80;53.60;;;;;;6247415;23;20390;-86
2022/04/10 11:35:21;;;;;;;2.07;1.17;;;23.70;53.50;;;;;;6247669;23;20398;-80
2022/04/10 11:37:50;;;;;;;1.30;1.20;;;23.80;53.60;;;;;;6247555;23;20398;-80
2022/04/10 11:40:22;;;;;;;1.40;1.20;;;23.90;53.60;;;;;;6247421;23;20397;-80
2022/04/10 11:42:49;;;;;;;1.30;1.07;;;23.90;53.50;;;;;;6247240;23;20481;-82
2022/04/10 11:45:18;;;;;;;1.90;1.20;;;23.90;53.60;;;;;;6247430;23;20448;-80
2022/04/10 11:47:45;;;;;;;1.43;1.20;;;24.00;53.60;;;;;;6247485;23;20397;-80
2022/04/10 11:50:13;;;;;;;1.50;1.10;;;24.00;53.60;;;;;;6247571;23;20401;-80
2022/04/10 11:52:41;;;;;;;7.90;1.43;;;24.00;53.60;;;;;;6247332;23;20398;-81
2022/04/10 11:55:10;;;;;;;1.13;1.00;;;24.10;53.60;;;;;;6247424;23;20398;-81
2022/04/10 11:57:40;;;;;;;1.30;1.17;;;24.10;53.60;;;;;;6247366;23;20398;-80
2022/04/10 12:00:10;;;;;;;1.30;1.20;;;24.10;53.50;;;;;;6246958;22;20984;-81
2022/04/10 12:02:37;;;;;;;1.40;1.20;;;24.10;53.50;;;;;;6247008;23;20405;-81
2022/04/10 12:05:04;;;;;;;1.07;0.90;;;24.10;53.50;;;;;;6247455;23;20410;-86
2022/04/10 12:07:31;;;;;;;1.20;1.03;;;24.10;53.50;;;;;;6247364;23;20404;-81
2022/04/10 12:09:59;;;;;;;1.20;1.10;;;24.10;53.50;;;;;;6247191;23;20401;-81
2022/04/10 12:12:38;;;;;;;1.50;0.90;;;24.10;53.50;;;;;;6247222;23;20398;-81
2022/04/10 12:15:16;;;;;;;1.20;1.10;;;24.10;53.40;;;;;;6247145;23;20389;-80
2022/04/10 12:17:44;;;;;;;1.47;1.10;;;24.10;53.30;;;;;;6246783;23;20896;-80
2022/04/10 12:20:12;;;;;;;1.40;1.30;;;24.00;53.40;;;;;;6246900;23;20409;-80
2022/04/10 12:22:39;;;;;;;1.20;1.10;;;24.10;53.50;;;;;;6247096;23;20405;-79
2022/04/10 12:25:07;;;;;;;1.60;1.17;;;24.10;53.50;;;;;;6247255;23;20442;-79
2022/04/10 12:27:36;;;;;;;1.60;1.30;;;24.10;53.60;;;;;;6247239;23;20402;-80
2022/04/10 12:30:09;;;;;;;1.20;1.03;;;24.10;53.50;;;;;;6246859;22;20426;-80
2022/04/10 12:32:37;;;;;;;1.47;1.00;;;24.00;53.40;;;;;;6247147;23;20394;-80
2022/04/10 12:35:08;;;;;;;1.00;0.90;;;24.10;53.60;;;;;;6246850;23;20405;-81
2022/04/10 12:37:35;;;;;;;1.57;1.00;;;24.10;53.60;;;;;;6246999;23;20402;-80
2022/04/10 12:40:04;;;;;;;1.13;1.00;;;24.00;53.50;;;;;;6247071;23;20724;-86
2022/04/10 12:42:40;;;;;;;1.93;1.00;;;23.90;53.40;;;;;;6246790;23;20402;-80
2022/04/10 12:45:10;;;;;;;1.43;0.83;;;24.00;53.50;;;;;;6246562;23;20946;-80
2022/04/10 12:47:42;;;;;;;1.50;1.00;;;24.00;53.60;;;;;;6246993;23;20402;-81
2022/04/10 12:50:11;;;;;;;2.43;0.90;;;24.00;53.20;;;;;;6247026;23;20402;-84
2022/04/10 12:52:40;;;;;;;1.17;1.00;;;24.00;53.40;;;;;;6247179;23;20400;-84
2022/04/10 12:55:19;;;;;;;1.90;1.30;;;24.00;53.40;;;;;;6246782;23;20402;-80
2022/04/10 12:57:55;;;;;;;1.83;1.10;;;24.10;53.50;;;;;;6246776;23;20439;-80
2022/04/10 13:00:31;;;;;;;1.63;1.10;;;24.20;53.50;;;;;;6246534;22;20428;-81
2022/04/10 13:02:59;;;;;;;1.50;1.10;;;24.10;53.30;;;;;;6246494;23;20436;-80
2022/04/10 13:05:26;;;;;;;5.03;1.07;;;24.00;53.30;;;;;;6245607;23;20796;-81
2022/04/10 13:07:58;;;;;;;1.13;0.83;;;24.00;53.40;;;;;;6246393;23;20726;-85
2022/04/10 13:10:25;;;;;;;1.33;1.00;;;24.00;53.50;;;;;;6246207;23;20412;-85
2022/04/10 13:13:03;;;;;;;2.13;0.77;;;24.00;53.40;;;;;;6245876;23;20402;-81
2022/04/10 13:15:31;;;;;;;1.00;0.80;;;24.10;53.40;;;;;;6246536;23;20994;-81
2022/04/10 13:17:58;;;;;;;0.97;0.80;;;24.00;53.40;;;;;;6246579;23;20439;-83
2022/04/10 13:20:27;;;;;;;1.10;1.00;;;24.00;53.40;;;;;;6244808;23;20401;-84
2022/04/10 13:22:54;;;;;;;1.73;1.00;;;24.00;53.50;;;;;;6244862;23;20413;-80
2022/04/10 13:25:21;;;;;;;4.30;1.00;;;24.00;53.50;;;;;;6244846;23;20448;-86
2022/04/10 13:27:47;;;;;;;1.10;0.80;;;24.00;53.50;;;;;;6244659;23;20409;-80
2022/04/10 13:30:15;;;;;;;1.00;0.80;;;24.00;53.50;;;;;;6244758;22;20426;-80
2022/04/10 13:32:42;;;;;;;2.17;0.77;;;24.00;53.50;;;;;;6244942;23;20397;-86
2022/04/10 13:35:10;;;;;;;1.43;0.97;;;24.00;53.50;;;;;;6247119;23;20405;-80
2022/04/10 13:37:37;;;;;;;1.00;0.90;;;24.00;53.60;;;;;;6246513;23;20408;-78
2022/04/10 13:40:04;;;;;;;2.77;1.00;;;24.00;53.70;;;;;;6244701;23;20402;-79
2022/04/10 13:42:33;;;;;;;2.53;1.10;;;24.00;53.70;;;;;;6245804;23;20444;-78
2022/04/10 13:45:00;;;;;;;1.00;0.70;;;24.10;53.80;;;;;;6246412;23;20437;-81
2022/04/10 13:47:28;;;;;;;1.40;0.80;;;24.00;53.20;;;;;;6246097;23;20406;-80
2022/04/10 13:49:56;;;;;;;2.73;1.10;;;24.00;52.80;;;;;;6246558;23;20405;-81
2022/04/10 13:52:23;;;;;;;1.30;1.13;;;24.00;53.30;;;;;;6246316;23;20409;-87
2022/04/10 13:54:52;;;;;;;1.07;0.90;;;24.00;53.90;;;;;;6246292;23;20406;-80
2022/04/10 13:57:19;;;;;;;0.97;0.87;;;24.00;53.40;;;;;;6245961;23;20409;-79
2022/04/10 13:59:46;;;;;;;1.07;0.90;;;24.00;53.30;;;;;;6246190;22;20737;-81
2022/04/10 14:02:13;;;;;;;1.00;0.80;;;24.00;53.30;;;;;;6245822;23;20406;-80
2022/04/10 14:04:42;;;;;;;1.53;0.90;;;24.00;53.30;;;;;;6246393;23;20451;-80
2022/04/10 14:07:09;;;;;;;3.50;0.90;;;24.00;53.30;;;;;;6246341;23;20406;-80
2022/04/10 14:09:36;;;;;;;1.10;0.80;;;24.00;53.90;;;;;;6246242;23;20429;-80
2022/04/10 14:12:04;;;;;;;2.20;1.10;;;24.00;53.30;;;;;;6246007;23;20408;-80
2022/04/10 14:14:32;;;;;;;3.40;1.33;;;24.00;53.20;;;;;;6246376;23;20401;-79
2022/04/10 14:16:59;;;;;;;1.20;1.00;;;24.00;53.30;;;;;;6245783;23;20425;-80
2022/04/10 14:19:26;;;;;;;1.20;1.10;;;24.00;53.30;;;;;;6246104;23;20397;-79
2022/04/10 14:21:54;;;;;;;1.03;0.90;;;24.00;53.20;;;;;;6245137;23;20405;-86
2022/04/10 14:24:21;;;;;;;1.13;1.03;;;23.90;53.10;;;;;;6246127;23;20445;-80
2022/04/10 14:26:49;;;;;;;0.90;0.70;;;23.90;53.10;;;;;;6245528;23;20410;-80
2022/04/10 14:29:16;;;;;;;1.00;0.83;;;23.90;53.20;;;;;;6245771;22;20931;-82
2022/04/10 14:31:46;;;;;;;1.07;0.90;;;23.90;53.10;;;;;;6245922;23;20413;-79
2022/04/10 14:34:14;;;;;;;1.10;0.80;;;23.90;53.10;;;;;;6245829;23;20412;-80
2022/04/10 14:36:41;;;;;;;1.90;1.00;;;23.90;53.10;;;;;;6246351;23;20795;-80
2022/04/10 14:39:09;;;;;;;1.00;0.87;;;23.80;53.10;;;;;;6246032;23;20492;-80
2022/04/10 14:41:36;;;;;;;1.03;0.70;;;23.90;53.10;;;;;;6245652;23;20405;-80
2022/04/10 14:44:03;;;;;;;1.07;0.80;;;23.80;52.90;;;;;;6244424;23;20433;-81
2022/04/10 14:46:29;;;;;;;1.23;0.80;;;23.80;53.00;;;;;;6244460;23;20405;-79
2022/04/10 14:48:56;;;;;;;1.90;0.90;;;23.80;53.10;;;;;;6244389;23;20405;-82
2022/04/10 14:51:24;;;;;;;2.10;0.83;;;23.80;52.90;;;;;;6243824;23;20959;-79
2022/04/10 14:53:50;;;;;;;1.23;1.13;;;23.80;53.50;;;;;;6244436;23;20822;-87
2022/04/10 14:56:19;;;;;;;0.93;0.70;;;23.90;53.00;;;;;;6244201;23;20405;-79
2022/04/10 14:58:45;;;;;;;2.40;0.80;;;23.80;52.90;;;;;;6245722;22;20408;-80
2022/04/10 15:01:12;;;;;;;1.40;0.93;;;23.90;53.10;;;;;;6248006;23;20774;-80
2022/04/10 15:03:39;;;;;;;1.83;0.90;;;23.80;53.00;;;;;;6247868;23;20398;-79
2022/04/10 15:06:06;;;;;;;1.40;0.90;;;23.80;53.10;;;;;;6247589;23;20390;-84
2022/04/10 15:08:33;;;;;;;3.57;1.40;;;23.70;52.00;;;;;;6247922;23;20398;-85
2022/04/10 15:10:59;;;;;;;1.43;0.90;;;23.70;51.90;;;;;;6247604;23;20410;-81
2022/04/10 15:13:29;;;;;;;2.53;0.90;;;23.70;51.10;;;;;;6247529;23;20405;-81
2022/04/10 15:15:55;;;;;;;4.30;0.90;;;23.70;52.20;;;;;;6247483;23;20456;-80
2022/04/10 15:18:22;;;;;;;2.70;1.00;;;23.70;52.50;;;;;;6248357;23;20408;-80
2022/04/10 15:20:50;;;;;;;4.50;1.10;;;23.70;52.60;;;;;;6247721;23;20766;-84
2022/04/10 15:23:17;;;;;;;3.00;1.20;;;23.70;52.70;;;;;;6247833;23;20402;-79
2022/04/10 15:25:44;;;;;;;1.20;0.93;;;23.70;52.80;;;;;;6247652;23;20441;-83
2022/04/10 15:28:11;;;;;;;1.30;1.00;;;23.70;52.20;;;;;;6247646;23;20408;-81
2022/04/10 15:30:39;;;;;;;1.50;1.23;;;23.60;52.30;;;;;;6246954;22;20422;-81
2022/04/10 15:33:07;;;;;;;1.93;1.10;;;23.60;52.40;;;;;;6248200;23;20521;-85
2022/04/10 15:35:34;;;;;;;1.50;1.00;;;23.60;52.30;;;;;;6248158;23;20712;-89
2022/04/10 15:38:03;;;;;;;1.30;1.20;;;23.60;52.60;;;;;;6248020;23;20398;-89
2022/04/10 15:40:29;;;;;;;1.73;1.00;;;23.60;52.80;;;;;;6247541;23;20436;-86
2022/04/10 15:42:57;;;;;;;1.57;0.97;;;23.60;52.90;;;;;;6246762;23;20413;-81
2022/04/10 15:45:24;;;;;;;1.53;1.20;;;23.60;52.70;;;;;;6247136;23;20441;-89
2022/04/10 15:47:53;;;;;;;1.27;1.10;;;23.50;52.00;;;;;;6247569;23;20402;-88
2022/04/10 15:50:20;;;;;;;1.30;1.00;;;23.50;52.10;;;;;;6247579;23;20401;-81
2022/04/10 15:52:49;;;;;;;2.20;1.10;;;23.50;52.50;;;;;;6247685;23;20396;-80
2022/04/10 15:55:18;;;;;;;1.60;1.00;;;23.50;52.80;;;;;;6247148;23;20904;-81
2022/04/10 15:57:46;;;;;;;1.60;1.07;;;23.50;52.90;;;;;;6247386;23;20421;-81
2022/04/10 16:00:15;;;;;;;1.10;0.90;;;23.50;52.90;;;;;;6247430;22;20504;-81
2022/04/10 16:02:44;;;;;;;1.20;0.97;;;23.50;53.00;;;;;;6247266;23;20412;-83
2022/04/10 16:05:13;;;;;;;1.63;0.90;;;23.50;53.00;;;;;;6247400;23;20447;-82
2022/04/10 16:07:40;;;;;;;1.23;0.90;;;23.50;53.10;;;;;;6247155;23;20402;-81
2022/04/10 16:10:07;;;;;;;1.93;0.90;;;23.40;53.10;;;;;;6247081;23;20402;-82
2022/04/10 16:12:34;;;;;;;2.70;1.23;;;23.40;53.00;;;;;;6247283;23;20408;-81
2022/04/10 16:15:01;;;;;;;1.13;0.93;;;23.40;52.90;;;;;;6246938;23;20397;-81
2022/04/10 16:17:28;;;;;;;1.00;0.70;;;23.60;53.10;;;;;;6246942;23;20861;-82
2022/04/10 16:19:55;;;;;;;1.57;0.80;;;23.40;52.90;;;;;;6247316;23;20700;-82
2022/04/10 16:22:24;;;;;;;1.10;1.00;;;23.40;52.90;;;;;;6247249;23;20808;-81
2022/04/10 16:24:51;;;;;;;1.00;0.90;;;23.40;52.80;;;;;;6247396;23;20487;-81
2022/04/10 16:30:10;;;;;;;1.23;1.00;;;23.40;52.80;;;;;;6246699;22;20413;-82
2022/04/10 16:32:38;;;;;;;1.00;0.83;;;23.40;52.80;;;;;;6246732;23;20389;-81
2022/04/10 16:35:07;;;;;;;1.50;0.90;;;23.40;52.70;;;;;;6247108;23;20406;-81
2022/04/10 16:37:35;;;;;;;2.40;0.90;;;23.40;52.60;;;;;;6247122;23;20397;-82
2022/04/10 16:40:02;;;;;;;2.20;0.97;;;23.40;52.50;;;;;;6247044;23;20719;-81
2022/04/10 16:42:29;;;;;;;0.97;0.77;;;23.50;52.50;;;;;;6246877;23;20404;-81
2022/04/10 16:44:56;;;;;;;1.60;0.93;;;23.30;52.10;;;;;;6246791;23;20445;-80
2022/04/10 16:47:23;;;;;;;2.10;1.03;;;23.40;51.90;;;;;;6246835;23;20407;-80
2022/04/10 16:49:50;;;;;;;1.30;0.90;;;23.30;51.60;;;;;;6246946;23;20405;-80
2022/04/10 16:52:17;;;;;;;1.00;0.80;;;23.40;51.60;;;;;;6246726;23;20927;-80
2022/04/10 16:54:50;;;;;;;1.00;0.70;;;23.30;51.20;;;;;;6247014;23;20409;-81
2022/04/10 16:57:17;;;;;;;1.00;0.80;;;23.40;51.00;;;;;;6246696;23;20413;-85
2022/04/10 16:59:45;;;;;;;0.90;0.77;;;23.30;50.90;;;;;;6246560;22;20428;-81
2022/04/10 17:02:14;;;;;;;1.00;0.90;;;23.30;50.90;;;;;;6246625;23;20417;-80
2022/04/10 17:04:40;;;;;;;1.97;1.20;;;23.30;50.80;;;;;;6246761;23;20442;-88
2022/04/10 17:07:08;;;;;;;1.30;1.20;;;23.30;50.60;;;;;;6246553;23;20410;-80
2022/04/10 17:09:35;;;;;;;1.37;1.03;;;23.30;50.70;;;;;;6246905;23;20760;-80
2022/04/10 17:12:04;;;;;;;1.10;1.00;;;23.30;50.60;;;;;;6246614;23;20398;-80
2022/04/10 17:14:31;;;;;;;1.63;0.90;;;23.30;50.50;;;;;;6246565;23;20727;-80
2022/04/10 17:16:58;;;;;;;1.00;0.80;;;23.30;50.60;;;;;;6246220;23;20440;-80
2022/04/10 17:19:25;;;;;;;1.20;1.00;;;23.20;50.50;;;;;;6246718;23;20424;-80
2022/04/10 17:21:52;;;;;;;1.00;0.73;;;23.20;50.50;;;;;;6246165;23;20401;-80
2022/04/10 17:24:18;;;;;;;1.00;0.80;;;23.20;50.40;;;;;;6246127;23;20404;-80
2022/04/10 17:26:47;;;;;;;0.90;0.77;;;23.20;50.50;;;;;;6246183;23;20401;-80
2022/04/10 17:29:15;;;;;;;1.10;0.97;;;23.20;50.40;;;;;;6246402;22;20487;-80
2022/04/10 17:31:42;;;;;;;1.23;0.87;;;23.20;50.30;;;;;;6246414;23;20402;-80
2022/04/10 17:34:09;;;;;;;1.03;0.80;;;23.30;50.40;;;;;;6246431;23;20402;-80
2022/04/10 17:36:36;;;;;;;1.00;0.90;;;23.20;50.30;;;;;;6246573;23;20401;-80
2022/04/10 17:39:03;;;;;;;1.27;0.90;;;23.20;50.40;;;;;;6246503;23;20402;-80
2022/04/10 17:41:30;;;;;;;1.20;0.90;;;23.20;50.40;;;;;;6246418;23;20408;-87
2022/04/10 17:43:57;;;;;;;1.90;1.20;;;23.20;50.40;;;;;;6246388;23;20459;-81
2022/04/10 17:46:25;;;;;;;2.47;0.90;;;23.20;50.90;;;;;;6245538;23;20441;-82
2022/04/10 17:48:52;;;;;;;1.40;1.30;;;23.20;51.20;;;;;;6246144;23;20401;-84
2022/04/10 17:51:19;;;;;;;2.33;1.30;;;23.20;51.00;;;;;;6246532;23;20709;-83
2022/04/10 17:53:47;;;;;;;1.17;0.80;;;23.20;51.00;;;;;;6246347;23;20458;-87
2022/04/10 17:56:14;;;;;;;1.40;1.10;;;23.20;50.80;;;;;;6246041;23;20405;-89
2022/04/10 17:58:42;;;;;;;1.57;0.90;;;23.20;50.80;;;;;;6246051;22;20948;-86
2022/04/10 18:01:08;;;;;;;1.30;1.10;;;23.30;51.00;;;;;;6246154;23;20394;-77
2022/04/10 18:03:38;;;;;;;14.30;1.20;;;23.10;51.40;;;;;;6246568;23;20716;-87
2022/04/10 18:06:05;;;;;;;19.37;8.83;;;23.10;51.60;;;;;;6246223;23;20472;-80
2022/04/10 18:08:34;;;;;;;25.77;9.53;;;23.10;51.90;;;;;;6246179;23;20873;-88
2022/04/10 18:11:03;;;;;;;24.07;11.33;;;23.10;51.90;;;;;;6246449;23;20733;-86
2022/04/10 18:13:30;;;;;;;42.63;15.53;;;23.10;51.90;;;;;;6246490;23;20428;-79
2022/04/10 18:15:57;;;;;;;34.17;20.77;;;23.10;52.00;;;;;;6245948;23;20528;-79
2022/04/10 18:18:24;;;;;;;35.63;20.90;;;23.10;52.00;;;;;;6246279;23;20402;-79
2022/04/10 18:20:53;;;;;;;28.47;16.37;;;23.10;52.00;;;;;;6245805;23;20398;-78
2022/04/10 18:23:21;;;;;;;29.90;17.40;;;23.20;52.00;;;;;;6246473;23;20401;-86
2022/04/10 18:25:48;;;;;;;25.80;15.57;;;23.20;51.80;;;;;;6246107;23;20441;-85
2022/04/10 18:28:16;;;;;;;28.23;16.97;;;23.10;51.80;;;;;;6246366;23;20402;-86
2022/04/10 18:30:43;;;;;;;27.50;14.93;;;23.10;51.90;;;;;;6246140;22;20429;-78
2022/04/10 18:33:11;;;;;;;29.67;18.07;;;23.20;51.70;;;;;;6246567;23;20412;-88
2022/04/10 18:35:38;;;;;;;23.83;14.93;;;23.20;51.80;;;;;;6248365;23;20409;-80
2022/04/10 18:38:07;;;;;;;23.83;13.83;;;23.20;51.90;;;;;;6248179;23;20401;-78
2022/04/10 18:40:33;;;;;;;21.07;12.40;;;23.20;52.00;;;;;;6247790;23;20405;-87
2022/04/10 18:43:00;;;;;;;21.43;13.40;;;23.20;51.80;;;;;;6248086;23;20402;-78
2022/04/10 18:45:29;;;;;;;22.37;14.37;;;23.20;51.60;;;;;;6248396;23;20441;-78
2022/04/10 18:47:56;;;;;;;27.93;15.17;;;23.10;51.60;;;;;;6248115;23;20821;-78
2022/04/10 18:50:23;;;;;;;20.73;14.60;;;23.20;51.70;;;;;;6248011;23;20438;-78
2022/04/10 18:52:50;;;;;;;17.00;12.67;;;23.20;51.80;;;;;;6248113;23;20437;-88
2022/04/10 18:55:18;;;;;;;25.83;12.60;;;23.20;51.80;;;;;;6247731;23;20462;-81
2022/04/10 18:57:45;;;;;;;19.13;12.07;;;23.10;51.70;;;;;;6247945;23;20401;-78
2022/04/10 19:00:14;;;;;;;20.83;13.10;;;23.10;51.80;;;;;;6247872;22;20431;-78
2022/04/10 19:02:41;;;;;;;19.20;12.20;;;23.10;51.80;;;;;;6248307;23;20659;-78
2022/04/10 19:05:08;;;;;;;16.67;12.17;;;23.10;51.70;;;;;;6247578;23;20530;-90
2022/04/10 19:07:36;;;;;;;20.90;11.50;;;23.10;51.80;;;;;;6247996;23;20401;-88
2022/04/10 19:10:03;;;;;;;16.77;10.33;;;23.10;51.90;;;;;;6248103;23;20408;-79
2022/04/10 19:12:31;;;;;;;19.93;12.77;;;23.10;51.90;;;;;;6248019;23;20393;-88
2022/04/10 19:15:00;;;;;;;19.30;11.47;;;23.10;52.00;;;;;;6247672;23;20413;-80
2022/04/10 19:17:27;;;;;;;14.83;10.60;;;23.10;52.00;;;;;;6248194;23;20393;-79
2022/04/10 19:19:55;;;;;;;15.87;10.60;;;23.10;52.10;;;;;;6248019;23;20401;-83
2022/04/10 19:22:22;;;;;;;20.03;11.40;;;23.10;52.40;;;;;;6247709;23;20397;-88
2022/04/10 19:24:48;;;;;;;13.37;9.23;;;23.10;52.30;;;;;;6247833;23;20406;-78
2022/04/10 19:27:21;;;;;;;14.70;10.23;;;23.10;52.10;;;;;;6247668;23;20449;-78
2022/04/10 19:29:51;;;;;;;13.40;9.40;;;23.10;52.20;;;;;;6247389;22;20950;-78
2022/04/10 19:32:18;;;;;;;14.70;9.43;;;23.10;52.20;;;;;;6247721;23;20397;-78
2022/04/10 19:34:45;;;;;;;10.87;8.63;;;23.30;52.30;;;;;;6247756;23;20404;-86
2022/04/10 19:37:13;;;;;;;15.93;9.60;;;23.20;52.40;;;;;;6247708;23;20444;-78
2022/04/10 19:39:40;;;;;;;14.50;9.67;;;23.10;52.30;;;;;;6247500;23;20394;-78
2022/04/10 19:42:07;;;;;;;14.50;8.90;;;23.10;52.10;;;;;;6247523;23;20492;-78
2022/04/10 19:44:33;;;;;;;15.30;10.47;;;23.10;52.20;;;;;;6247021;23;20403;-78
2022/04/10 19:47:02;;;;;;;16.60;9.80;;;23.10;52.40;;;;;;6247214;23;20944;-87
2022/04/10 19:49:29;;;;;;;14.27;9.77;;;23.10;52.30;;;;;;6247680;23;20484;-79
2022/04/10 19:51:55;;;;;;;12.37;8.70;;;23.10;52.40;;;;;;6247406;23;20401;-89
2022/04/10 19:54:22;;;;;;;13.87;9.10;;;23.10;52.50;;;;;;6247556;23;20409;-84
2022/04/10 19:56:49;;;;;;;15.50;8.57;;;23.10;52.40;;;;;;6247349;23;20405;-82
2022/04/10 19:59:17;;;;;;;12.87;9.07;;;23.20;52.40;;;;;;6247074;22;20425;-84
2022/04/10 20:01:44;;;;;;;9.30;7.73;;;23.10;52.30;;;;;;6247854;23;20397;-78